createdAt,value
2023-02-07T00:16:44.000Z,990.9
2023-02-07T00:46:49.000Z,990.8
2023-02-07T01:16:53.000Z,991.0
2023-02-07T01:46:57.000Z,990.8
2023-02-07T02:17:02.000Z,991.0
2023-02-07T02:47:07.000Z,991.3
2023-02-07T03:17:10.000Z,991.4
2023-02-07T03:47:15.000Z,991.4
2023-02-07T04:17:24.000Z,991.6
2023-02-07T04:47:27.000Z,991.5
2023-02-07T05:17:31.000Z,991.7
2023-02-07T05:47:37.000Z,991.6
2023-02-07T06:17:43.000Z,991.7
2023-02-07T06:47:49.000Z,991.7
2023-02-07T07:17:54.000Z,991.9
2023-02-07T07:48:00.000Z,992.2
2023-02-07T08:18:09.000Z,992.0
2023-02-07T08:48:12.000Z,992.3
2023-02-07T09:18:16.000Z,992.5
2023-02-07T09:48:20.000Z,992.4
2023-02-07T10:18:27.000Z,992.8
2023-02-07T10:48:33.000Z,992.9
2023-02-07T11:18:42.000Z,993.0
2023-02-07T11:48:45.000Z,992.6
2023-02-07T12:18:47.000Z,992.7
2023-02-07T12:48:53.000Z,992.5
2023-02-07T13:19:00.000Z,992.1
2023-02-07T13:49:06.000Z,992.5
2023-02-07T14:19:11.000Z,992.0
2023-02-07T14:49:17.000Z,991.9
2023-02-07T15:19:22.000Z,991.9
2023-02-07T15:49:26.000Z,992.1
2023-02-07T16:19:30.000Z,992.1
2023-02-07T16:49:38.000Z,992.5
2023-02-07T17:19:42.000Z,992.7
2023-02-07T17:49:49.000Z,992.6
2023-02-07T18:19:59.000Z,992.9
2023-02-07T18:50:09.000Z,992.9
2023-02-07T19:20:16.000Z,993.0
2023-02-07T19:50:26.000Z,993.2
2023-02-07T20:20:32.000Z,993.3
2023-02-07T20:50:38.000Z,993.2
2023-02-07T21:20:43.000Z,993.0
2023-02-07T21:50:49.000Z,993.0
2023-02-07T22:20:58.000Z,993.1
2023-02-07T22:21:08.000Z,993.1
2023-02-07T22:21:19.000Z,993.1
2023-02-07T22:21:32.000Z,993.1
2023-02-07T22:21:43.000Z,993.1
2023-02-07T22:56:21.000Z,993.0
2023-02-07T22:57:55.000Z,993.0
2023-02-07T22:59:29.000Z,993.0
2023-02-07T23:01:13.000Z,992.9
2023-02-07T23:02:48.000Z,993.0
2023-02-07T23:41:18.000Z,993.0
